Time;durP1;ratioP1;P1;durP2;ratioP2;P2;SDS_P1;SDS_P2;PMS_P1;PMS_P2;Temp;Humidity;BMP_temperature;BMP_pressure;BME280_temperature;BME280_humidity;BME280_pressure;Samples;Min_cycle;Max_cycle;Signal;HPM_P1;HPM_P2
2022/10/19 00:01:23;;;;;;;4.78;1.17;;;;;;;11.28;100.00;102932.81;5072949;28;20052;-81
2022/10/19 00:03:54;;;;;;;6.10;1.38;;;;;;;11.30;100.00;102925.84;5068275;27;20047;-82
2022/10/19 00:44:30;;;;;;;5.25;1.20;;;;;;;11.40;100.00;102932.34;5133166;27;20393;-82
2022/10/19 00:47:02;;;;;;;6.28;1.08;;;;;;;11.41;100.00;102943.78;5089534;28;20058;-82
2022/10/19 00:49:40;;;;;;;7.20;1.42;;;;;;;11.40;100.00;102941.97;5109368;28;20044;-82
2022/10/19 00:52:13;;;;;;;7.70;1.70;;;;;;;11.40;100.00;102947.25;5087692;28;20119;-82
2022/10/19 00:54:47;;;;;;;6.18;1.83;;;;;;;11.37;100.00;102949.81;5058903;28;20050;-82
2022/10/19 00:57:15;;;;;;;;;;;;;;;11.37;100.00;102948.06;5094590;28;20183;-81
2022/10/19 00:59:44;;;;;;;5.95;1.48;;;;;;;11.39;100.00;102948.13;5092524;28;19920;-82
2022/10/19 01:02:14;;;;;;;9.77;1.42;;;;;;;11.42;100.00;102940.31;5074320;28;20044;-81
2022/10/19 01:04:46;;;;;;;;;;;;;;;11.41;100.00;102939.38;5046656;28;20124;-82
2022/10/19 01:07:15;;;;;;;4.18;1.20;;;;;;;11.42;100.00;102949.13;5057472;28;20148;-80
2022/10/19 01:09:44;;;;;;;2.97;1.13;;;;;;;11.43;100.00;102935.06;5074509;28;20044;-81
2022/10/19 01:12:27;;;;;;;10.10;1.75;;;;;;;11.47;100.00;102938.69;5095939;28;20063;-81
2022/10/19 01:15:10;;;;;;;6.57;1.30;;;;;;;11.50;100.00;102937.06;5095326;28;20389;-81
2022/10/19 01:18:02;;;;;;;6.22;1.50;;;;;;;11.51;100.00;102945.88;5099365;28;20043;-81
2022/10/19 01:20:39;;;;;;;6.93;2.15;;;;;;;11.53;100.00;102946.84;5132734;28;20047;-81
2022/10/19 01:23:36;;;;;;;3.63;1.25;;;;;;;11.54;100.00;102940.69;5081711;27;20043;-84
2022/10/19 01:26:13;;;;;;;6.40;1.13;;;;;;;11.54;100.00;102945.09;5090430;28;20152;-82
2022/10/19 01:28:53;;;;;;;9.13;2.08;;;;;;;11.52;100.00;102943.28;5101172;28;20388;-81
2022/10/19 01:31:40;;;;;;;2.90;1.15;;;;;;;11.50;100.00;102938.81;5103726;28;20046;-80
2022/10/19 01:34:17;;;;;;;5.28;1.67;;;;;;;11.50;100.00;102944.97;5109077;27;20036;-81
2022/10/19 01:36:58;;;;;;;6.32;1.60;;;;;;;11.52;100.00;102945.91;5101957;28;20031;-81
2022/10/19 01:39:38;;;;;;;5.40;1.63;;;;;;;11.56;100.00;102944.28;5075770;28;20055;-80
2022/10/19 01:42:10;;;;;;;12.35;2.10;;;;;;;11.59;100.00;102938.22;5117240;27;20234;-81
2022/10/19 01:44:50;;;;;;;8.02;1.60;;;;;;;11.61;100.00;102942.69;5120363;28;20044;-81
2022/10/19 01:47:44;;;;;;;10.52;1.60;;;;;;;11.63;100.00;102946.28;5102427;28;20046;-81
2022/10/19 01:50:31;;;;;;;6.15;1.75;;;;;;;11.64;100.00;102947.16;5100766;27;20081;-81
2022/10/19 01:53:02;;;;;;;8.30;1.92;;;;;;;11.64;100.00;102942.78;5092201;28;20047;-82
2022/10/19 01:55:32;;;;;;;7.63;1.85;;;;;;;11.64;100.00;102949.81;5098284;27;20039;-81
2022/10/19 01:58:06;;;;;;;5.90;1.67;;;;;;;11.63;100.00;102945.41;5096796;27;20046;-81
2022/10/19 02:00:41;;;;;;;9.02;1.65;;;;;;;11.62;100.00;102936.56;5105647;27;20043;-81
2022/10/19 02:03:11;;;;;;;6.28;1.63;;;;;;;11.62;100.00;102944.47;5117774;27;20410;-81
2022/10/19 02:05:41;;;;;;;5.47;1.83;;;;;;;11.63;100.00;102941.00;5103659;27;20054;-82
2022/10/19 02:08:19;;;;;;;8.98;1.67;;;;;;;11.62;100.00;102939.19;5110994;28;20443;-81
2022/10/19 02:10:48;;;;;;;12.32;1.98;;;;;;;11.61;100.00;102940.06;5086224;27;20055;-81
2022/10/19 02:13:19;;;;;;;9.13;1.90;;;;;;;11.60;100.00;102934.72;5110677;28;20039;-80
2022/10/19 02:15:51;;;;;;;13.70;2.20;;;;;;;11.60;100.00;102930.31;5115686;28;20054;-82
2022/10/19 02:18:29;;;;;;;4.78;1.40;;;;;;;11.59;100.00;102927.66;5114655;27;20082;-81
2022/10/19 02:21:02;;;;;;;9.60;2.05;;;;;;;11.57;100.00;102935.53;5113220;27;20048;-82
2022/10/19 02:23:30;;;;;;;11.07;2.75;;;;;;;11.56;100.00;102925.81;5111182;28;20044;-81
2022/10/19 02:25:59;;;;;;;6.13;1.77;;;;;;;11.52;100.00;102923.91;5077748;28;20035;-81
2022/10/19 02:28:29;;;;;;;7.18;1.75;;;;;;;11.49;100.00;102913.25;5098638;27;20035;-80
2022/10/19 02:30:58;;;;;;;12.47;2.80;;;;;;;11.47;100.00;102909.66;5099141;28;20051;-81
2022/10/19 02:33:28;;;;;;;5.80;1.90;;;;;;;11.45;100.00;102911.34;5098131;27;20051;-81
2022/10/19 02:35:58;;;;;;;9.55;1.45;;;;;;;11.45;100.00;102914.00;5098077;27;20066;-81
2022/10/19 02:38:28;;;;;;;12.65;2.47;;;;;;;11.44;100.00;102918.38;5098735;27;20038;-81
2022/10/19 02:41:04;;;;;;;11.45;2.28;;;;;;;11.43;100.00;102905.13;5071169;28;20051;-82
2022/10/19 02:43:39;;;;;;;11.23;1.75;;;;;;;11.43;100.00;102916.56;5120717;27;20043;-80
2022/10/19 02:46:18;;;;;;;11.60;2.13;;;;;;;11.44;100.00;102909.56;5102206;27;20340;-81
2022/10/19 02:48:49;;;;;;;16.05;2.22;;;;;;;11.43;100.00;102915.69;5102652;27;20032;-81
2022/10/19 02:51:57;;;;;;;6.50;1.83;;;;;;;11.41;100.00;102912.09;5123032;27;20271;-81
2022/10/19 02:54:27;;;;;;;9.55;1.77;;;;;;;11.39;100.00;102917.31;5089325;28;20061;-81
2022/10/19 02:56:56;;;;;;;8.13;1.75;;;;;;;11.40;100.00;102905.00;5063076;28;20492;-81
2022/10/19 02:59:25;;;;;;;10.00;1.90;;;;;;;11.40;100.00;102920.84;5111585;27;20059;-81
2022/10/19 03:01:54;;;;;;;10.05;2.15;;;;;;;11.35;100.00;102907.53;5100150;28;20055;-81
2022/10/19 03:04:22;;;;;;;11.13;2.20;;;;;;;11.33;100.00;102919.78;5111914;27;20047;-80
2022/10/19 03:06:50;;;;;;;7.28;1.95;;;;;;;11.28;100.00;102927.53;5099456;27;20044;-81
2022/10/19 03:09:19;;;;;;;8.48;1.92;;;;;;;11.24;100.00;102919.47;5060469;28;20048;-80
2022/10/19 03:11:47;;;;;;;6.70;1.58;;;;;;;11.19;100.00;102927.25;5073496;27;20050;-81
2022/10/19 03:14:16;;;;;;;8.13;1.75;;;;;;;11.16;100.00;102923.59;5067462;28;20294;-81
2022/10/19 03:16:44;;;;;;;9.23;2.17;;;;;;;11.10;100.00;102926.94;5092320;28;20044;-81
2022/10/19 03:19:13;;;;;;;5.72;1.52;;;;;;;11.05;100.00;102923.22;5097799;27;20591;-81
2022/10/19 03:21:41;;;;;;;7.32;1.52;;;;;;;11.02;100.00;102921.38;5103335;27;20038;-81
2022/10/19 03:24:10;;;;;;;16.50;2.10;;;;;;;11.01;100.00;102923.97;5088966;27;20047;-80
2022/10/19 03:26:38;;;;;;;10.70;2.20;;;;;;;10.99;100.00;102923.91;5097179;28;20054;-81
2022/10/19 03:29:06;;;;;;;7.10;1.98;;;;;;;10.99;100.00;102923.03;5055493;27;20039;-81
2022/10/19 03:31:35;;;;;;;9.65;2.08;;;;;;;10.99;100.00;102917.75;5102068;27;20043;-81
2022/10/19 03:34:03;;;;;;;6.93;2.00;;;;;;;10.98;100.00;102922.09;5101764;28;20062;-81
2022/10/19 03:36:34;;;;;;;7.28;1.67;;;;;;;10.98;100.00;102923.84;5108024;27;20039;-82
2022/10/19 03:39:06;;;;;;;7.15;1.92;;;;;;;10.97;100.00;102930.88;5092845;27;20040;-81
2022/10/19 03:41:36;;;;;;;5.97;1.70;;;;;;;10.96;100.00;102930.81;5120066;27;20046;-81
2022/10/19 03:44:06;;;;;;;4.78;2.15;;;;;;;10.95;100.00;102932.56;5058880;27;20813;-81
2022/10/19 03:46:36;;;;;;;8.13;2.10;;;;;;;10.95;100.00;102937.84;5095768;28;20404;-81
2022/10/19 03:49:05;;;;;;;11.13;2.63;;;;;;;10.96;100.00;102931.69;5091752;28;20277;-81
2022/10/19 03:51:34;;;;;;;9.80;1.80;;;;;;;10.95;100.00;102939.59;5117588;28;20063;-81
2022/10/19 03:54:05;;;;;;;11.77;2.67;;;;;;;10.97;100.00;102943.19;5078994;28;20040;-81
2022/10/19 03:56:35;;;;;;;8.48;1.73;;;;;;;10.99;100.00;102942.38;5071428;28;20039;-80
2022/10/19 03:59:05;;;;;;;10.45;2.00;;;;;;;10.97;100.00;102941.44;5095738;28;20052;-81
2022/10/19 04:01:37;;;;;;;10.82;1.73;;;;;;;10.98;100.00;102947.59;5026586;28;20055;-82
2022/10/19 04:04:10;;;;;;;12.27;2.10;;;;;;;11.00;100.00;102951.19;5115477;27;20243;-81
2022/10/19 04:06:40;;;;;;;6.25;1.45;;;;;;;11.01;100.00;102951.22;5098243;28;20035;-81
2022/10/19 04:09:12;;;;;;;7.90;2.15;;;;;;;11.01;100.00;102952.97;5071049;28;20032;-80
2022/10/19 04:11:41;;;;;;;10.38;2.05;;;;;;;11.02;100.00;102957.41;5101121;28;20364;-81
2022/10/19 04:14:12;;;;;;;8.90;1.67;;;;;;;11.04;100.00;102967.19;5093335;28;20269;-81
2022/10/19 04:16:54;;;;;;;8.88;1.95;;;;;;;11.05;100.00;102961.03;5078685;27;20051;-81
2022/10/19 04:19:22;;;;;;;10.23;2.17;;;;;;;11.06;100.00;102960.22;5066836;28;20044;-80
2022/10/19 04:21:51;;;;;;;8.90;1.92;;;;;;;11.07;100.00;102955.81;5064366;28;20042;-81
2022/10/19 04:24:19;;;;;;;13.88;1.92;;;;;;;11.08;100.00;102957.63;5069890;27;20070;-80
2022/10/19 04:26:51;;;;;;;11.50;2.00;;;;;;;11.10;100.00;102966.50;5079700;28;20052;-83
2022/10/19 04:29:21;;;;;;;9.20;2.20;;;;;;;11.10;100.00;102959.47;5093357;28;20453;-80
2022/10/19 04:31:55;;;;;;;11.85;1.65;;;;;;;11.11;100.00;102963.91;5080741;28;20048;-81
2022/10/19 04:34:23;;;;;;;7.82;1.67;;;;;;;11.12;100.00;102954.25;5085469;28;20059;-80
2022/10/19 04:36:52;;;;;;;5.60;1.30;;;;;;;11.14;100.00;102947.28;5082099;28;20396;-83
2022/10/19 04:39:21;;;;;;;6.97;1.85;;;;;;;11.16;100.00;102952.63;5118372;27;20056;-82
2022/10/19 04:41:49;;;;;;;11.75;2.00;;;;;;;11.17;100.00;102943.84;5082352;28;20047;-80
2022/10/19 04:44:18;;;;;;;8.40;1.80;;;;;;;11.18;100.00;102946.53;5102655;28;20039;-81
2022/10/19 04:46:47;;;;;;;9.60;2.15;;;;;;;11.20;100.00;102951.88;5089465;27;20396;-80
2022/10/19 04:49:15;;;;;;;5.40;1.98;;;;;;;11.21;100.00;102951.94;5061233;28;20028;-80
2022/10/19 04:51:47;;;;;;;8.80;2.05;;;;;;;11.21;100.00;102945.75;5108600;27;20035;-82
2022/10/19 04:54:15;;;;;;;9.75;2.22;;;;;;;11.22;100.00;102943.16;5053003;27;20058;-81
2022/10/19 04:56:52;;;;;;;8.45;1.83;;;;;;;11.23;100.00;102939.69;5105655;28;20058;-82
2022/10/19 04:59:21;;;;;;;9.00;1.92;;;;;;;11.24;100.00;102933.53;5082315;28;20050;-82
2022/10/19 05:01:49;;;;;;;8.13;2.15;;;;;;;11.25;100.00;102934.47;5087706;28;20051;-80
2022/10/19 05:04:18;;;;;;;8.38;1.88;;;;;;;11.25;100.00;102935.34;5090751;28;20046;-81
2022/10/19 05:06:46;;;;;;;13.27;2.35;;;;;;;11.25;100.00;102932.72;5086923;28;20401;-81
2022/10/19 05:09:15;;;;;;;7.68;1.92;;;;;;;11.27;100.00;102931.03;5096323;27;20267;-80
2022/10/19 05:11:43;;;;;;;5.72;2.25;;;;;;;11.27;100.00;102928.38;5080558;28;20043;-81
2022/10/19 05:14:12;;;;;;;7.60;2.10;;;;;;;11.29;100.00;102928.44;5058366;28;20259;-81
2022/10/19 05:16:40;;;;;;;10.95;1.70;;;;;;;11.31;100.00;102932.03;5113556;28;20047;-81
2022/10/19 05:19:12;;;;;;;7.80;1.90;;;;;;;11.34;100.00;102928.56;5075010;27;22441;-81
2022/10/19 05:21:41;;;;;;;13.30;1.80;;;;;;;11.34;100.00;102934.75;5084065;28;20042;-81
2022/10/19 05:24:12;;;;;;;12.32;1.77;;;;;;;11.34;100.00;102925.94;5103263;27;20047;-81
2022/10/19 05:26:40;;;;;;;9.52;1.95;;;;;;;11.32;100.00;102926.81;5094365;28;20492;-81
2022/10/19 05:29:11;;;;;;;11.35;1.83;;;;;;;11.31;100.00;102924.09;5091802;27;20118;-81
2022/10/19 05:31:40;;;;;;;13.90;2.22;;;;;;;11.31;100.00;102924.09;5103237;27;20035;-81
2022/10/19 05:34:08;;;;;;;10.77;2.10;;;;;;;11.28;100.00;102922.25;5109822;27;20646;-81
2022/10/19 05:36:38;;;;;;;9.82;1.92;;;;;;;11.25;100.00;102919.53;5082200;27;20039;-81
2022/10/19 05:39:18;;;;;;;8.48;1.80;;;;;;;11.25;100.00;102916.88;5107966;28;20145;-81
2022/10/19 05:41:47;;;;;;;9.05;1.63;;;;;;;11.25;100.00;102916.88;5117606;27;20040;-81
2022/10/19 05:44:18;;;;;;;5.57;1.50;;;;;;;11.22;100.00;102911.50;5097528;28;20043;-81
2022/10/19 05:46:49;;;;;;;5.03;1.38;;;;;;;11.21;100.00;102915.00;5123799;27;20097;-80
2022/10/19 05:49:19;;;;;;;8.57;1.90;;;;;;;11.21;100.00;102915.00;5100095;27;20395;-81
2022/10/19 05:51:48;;;;;;;7.03;1.70;;;;;;;11.20;100.00;102912.28;5066864;27;20420;-81
2022/10/19 05:54:18;;;;;;;4.75;1.67;;;;;;;11.19;100.00;102914.03;5067017;27;20047;-81
2022/10/19 05:56:50;;;;;;;7.15;1.23;;;;;;;11.18;100.00;102912.25;5118969;27;20106;-80
2022/10/19 05:59:20;;;;;;;6.53;1.17;;;;;;;11.18;100.00;102921.91;5105453;27;20058;-81
2022/10/19 06:01:49;;;;;;;5.30;1.65;;;;;;;11.19;100.00;102921.03;5102421;27;20267;-81
2022/10/19 06:04:18;;;;;;;4.40;1.38;;;;;;;11.21;100.00;102927.25;5111377;27;20031;-81
2022/10/19 06:06:46;;;;;;;11.52;1.40;;;;;;;11.23;100.00;102928.25;5079704;27;20631;-81
2022/10/19 06:09:15;;;;;;;7.53;1.42;;;;;;;11.24;100.00;102936.19;5089851;27;20047;-82
2022/10/19 06:11:43;;;;;;;7.80;2.20;;;;;;;11.25;100.00;102935.34;5088092;27;20151;-81
2022/10/19 06:14:14;;;;;;;7.07;2.00;;;;;;;11.27;100.00;102930.13;5113335;27;20058;-81
2022/10/19 06:16:44;;;;;;;6.50;2.10;;;;;;;11.26;100.00;102931.84;5071477;27;20043;-80
2022/10/19 06:19:13;;;;;;;10.52;1.90;;;;;;;11.27;100.00;102935.41;5078220;27;20043;-82
2022/10/19 06:21:44;;;;;;;10.35;2.10;;;;;;;11.27;100.00;102941.56;5104753;27;20031;-81
2022/10/19 06:24:13;;;;;;;8.40;2.83;;;;;;;11.28;100.00;102940.72;5090461;27;20046;-81
2022/10/19 06:26:44;;;;;;;11.50;2.53;;;;;;;11.30;100.00;102939.06;5103183;28;20515;-81
2022/10/19 06:29:13;;;;;;;6.47;1.50;;;;;;;11.30;100.00;102936.41;5093814;27;20055;-82
2022/10/19 06:31:41;;;;;;;5.35;1.20;;;;;;;11.30;100.00;102949.63;5086637;27;20046;-82
2022/10/19 06:34:12;;;;;;;7.03;1.40;;;;;;;11.31;100.00;102953.13;5104516;27;20183;-81
2022/10/19 06:36:40;;;;;;;8.38;1.65;;;;;;;11.35;100.00;102959.44;5073144;27;20392;-80
2022/10/19 06:39:10;;;;;;;12.00;2.30;;;;;;;11.35;100.00;102962.94;5056483;27;20264;-79
2022/10/19 06:41:39;;;;;;;14.98;2.33;;;;;;;11.36;100.00;102961.19;5117059;27;20035;-81
2022/10/19 06:44:18;;;;;;;6.40;1.65;;;;;;;11.38;100.00;102965.72;5110126;27;20043;-80
2022/10/19 06:46:47;;;;;;;8.13;1.88;;;;;;;11.39;100.00;102961.31;5095517;27;20036;-82
2022/10/19 06:49:15;;;;;;;8.02;1.60;;;;;;;11.39;100.00;102966.59;5130241;27;20043;-81
2022/10/19 06:51:44;;;;;;;14.85;2.55;;;;;;;11.39;100.00;102961.31;5076673;28;20031;-81
2022/10/19 06:54:12;;;;;;;10.02;2.22;;;;;;;11.40;100.00;102968.38;5086722;27;20043;-82
2022/10/19 06:56:40;;;;;;;15.10;1.92;;;;;;;11.41;100.00;102963.16;5100972;27;20027;-82
2022/10/19 06:59:11;;;;;;;14.70;2.70;;;;;;;11.42;100.00;102959.69;5081637;28;20044;-82
2022/10/19 07:01:40;;;;;;;22.15;3.80;;;;;;;11.46;100.00;102960.69;5101417;27;20036;-82
2022/10/19 07:04:08;;;;;;;8.68;2.03;;;;;;;11.47;100.00;102967.75;5082276;27;20164;-82
2022/10/19 07:06:37;;;;;;;13.88;2.28;;;;;;;11.47;100.00;102973.94;5104255;27;20039;-82
2022/10/19 07:09:05;;;;;;;15.25;3.03;;;;;;;11.47;100.00;102978.28;5078711;27;20408;-82
2022/10/19 07:11:35;;;;;;;10.20;2.00;;;;;;;11.49;100.00;102973.97;5080005;27;20051;-81
2022/10/19 07:14:03;;;;;;;13.45;1.90;;;;;;;11.48;100.00;102972.19;5059469;27;21005;-81
2022/10/19 07:16:31;;;;;;;15.30;2.35;;;;;;;11.50;100.00;102970.50;5097905;27;20039;-81
2022/10/19 07:19:02;;;;;;;11.55;2.15;;;;;;;11.52;100.00;102974.97;5103889;28;20259;-81
2022/10/19 07:21:31;;;;;;;9.57;2.58;;;;;;;11.54;100.00;102976.78;5115150;28;20040;-81
2022/10/19 07:23:59;;;;;;;12.90;2.20;;;;;;;11.56;100.00;102978.59;5090800;27;20062;-81
2022/10/19 07:26:29;;;;;;;21.02;3.88;;;;;;;11.58;100.00;102982.19;5054267;28;20118;-82
2022/10/19 07:29:01;;;;;;;46.88;6.82;;;;;;;11.63;100.00;102977.09;5093687;27;20051;-83
2022/10/19 07:31:31;;;;;;;14.82;2.63;;;;;;;11.66;100.00;102977.16;5098578;27;20508;-80
2022/10/19 07:34:01;;;;;;;13.10;3.03;;;;;;;11.68;100.00;102970.19;5053857;28;20054;-82
2022/10/19 07:36:32;;;;;;;31.80;4.80;;;;;;;11.70;100.00;102969.41;5092891;28;20035;-81
2022/10/19 07:39:02;;;;;;;10.25;1.63;;;;;;;11.73;100.00;102965.97;5118293;27;20562;-81
2022/10/19 07:41:30;;;;;;;8.32;2.47;;;;;;;11.75;100.00;102977.47;5068663;27;20058;-81
2022/10/19 07:44:00;;;;;;;8.68;1.58;;;;;;;11.78;100.00;102979.34;5106906;28;20272;-82
2022/10/19 07:46:35;;;;;;;11.50;2.15;;;;;;;11.79;100.00;102979.34;5091229;28;20520;-81
2022/10/19 07:49:08;;;;;;;7.47;1.73;;;;;;;11.81;100.00;102987.34;5094612;27;20877;-84
2022/10/19 07:51:39;;;;;;;4.63;1.30;;;;;;;11.81;100.00;102982.06;5102766;27;20034;-81
2022/10/19 07:54:08;;;;;;;11.73;2.03;;;;;;;11.83;100.00;102983.00;5087266;28;20259;-82
2022/10/19 07:56:36;;;;;;;10.07;2.08;;;;;;;11.86;100.00;102984.00;5048360;27;20550;-83
2022/10/19 07:59:04;;;;;;;7.32;1.75;;;;;;;11.88;100.00;102978.75;5062416;28;20152;-83
2022/10/19 08:01:39;;;;;;;7.00;1.60;;;;;;;11.90;100.00;102977.09;5086454;28;20047;-84
2022/10/19 08:04:08;;;;;;;5.45;1.70;;;;;;;11.90;100.00;102977.09;5095499;27;20523;-83
2022/10/19 08:06:56;;;;;;;4.75;1.48;;;;;;;11.94;100.00;102986.91;5083158;28;20327;-82
2022/10/19 08:09:25;;;;;;;8.43;2.05;;;;;;;11.98;100.00;102986.16;5116212;27;20067;-83
2022/10/19 08:12:13;;;;;;;8.55;1.50;;;;;;;12.03;100.00;102992.50;5096900;27;20223;-83
2022/10/19 08:14:46;;;;;;;10.60;1.60;;;;;;;12.05;100.00;102990.78;5078355;27;20043;-83
2022/10/19 08:17:16;;;;;;;6.78;1.63;;;;;;;12.08;100.00;102990.91;5073780;27;20051;-82
2022/10/19 08:19:48;;;;;;;11.13;1.58;;;;;;;12.12;100.00;102989.25;5080130;28;20040;-83
2022/10/19 08:22:16;;;;;;;9.30;1.50;;;;;;;12.14;100.00;102981.38;5083897;28;20046;-84
2022/10/19 08:24:45;;;;;;;10.43;1.60;;;;;;;12.19;100.00;102991.25;5082770;28;20676;-83
2022/10/19 08:27:15;;;;;;;5.82;1.70;;;;;;;12.17;100.00;102992.91;5090817;28;20044;-83
2022/10/19 08:29:45;;;;;;;8.57;1.90;;;;;;;12.16;100.00;102996.41;5063196;27;20035;-83
2022/10/19 08:32:14;;;;;;;10.52;2.85;;;;;;;12.17;100.00;102984.97;5069492;28;20070;-83
2022/10/19 08:34:42;;;;;;;9.85;2.53;;;;;;;12.17;100.00;102986.72;5056188;27;20558;-83
2022/10/19 08:37:10;;;;;;;9.07;1.70;;;;;;;12.16;100.00;102988.50;5077849;27;20397;-83
2022/10/19 08:39:59;;;;;;;10.95;2.40;;;;;;;12.16;100.00;102984.97;5091820;27;20046;-82
2022/10/19 08:42:52;;;;;;;7.55;1.73;;;;;;;12.18;100.00;102988.53;5072665;27;20476;-83
2022/10/19 08:45:27;;;;;;;10.90;2.13;;;;;;;12.19;100.00;102991.25;5106339;27;20054;-83
2022/10/19 08:48:03;;;;;;;12.93;1.88;;;;;;;12.21;100.00;102991.25;5081893;27;20627;-83
2022/10/19 08:50:38;;;;;;;9.18;1.95;;;;;;;12.21;100.00;102978.03;5086014;27;20104;-83
2022/10/19 08:53:14;;;;;;;16.85;1.98;;;;;;;12.27;100.00;102986.19;5081609;28;20153;-80
2022/10/19 08:55:57;;;;;;;9.65;1.95;;;;;;;12.31;100.00;102985.41;5080581;28;20040;-82
2022/10/19 08:58:46;;;;;;;10.07;1.60;;;;;;;12.39;100.00;102983.00;5063423;28;20488;-82
2022/10/19 09:01:21;;;;;;;8.50;1.40;;;;;;;12.45;100.00;102989.34;5072036;28;20570;-83
2022/10/19 09:03:58;;;;;;;6.60;1.65;;;;;;;12.49;100.00;102982.41;5085332;28;20051;-83
2022/10/19 09:07:05;;;;;;;12.98;2.78;;;;;;;12.51;100.00;102977.16;5091285;28;20247;-82
2022/10/19 09:09:43;;;;;;;7.55;1.73;;;;;;;12.55;100.00;102973.75;5076291;28;20054;-83
2022/10/19 09:12:16;;;;;;;8.02;1.65;;;;;;;12.60;100.00;102972.16;5090006;28;20263;-82
2022/10/19 09:14:48;;;;;;;8.68;3.00;;;;;;;12.61;100.00;102977.50;5084348;27;20047;-83
2022/10/19 09:17:16;;;;;;;5.22;1.45;;;;;;;12.64;100.00;102971.38;5112220;28;20077;-82
2022/10/19 09:19:45;;;;;;;13.50;3.30;;;;;;;12.70;100.00;102966.25;5059861;27;20044;-84
2022/10/19 09:22:24;;;;;;;9.55;2.45;;;;;;;12.75;100.00;102963.75;5092194;28;20520;-82
2022/10/19 09:25:20;;;;;;;7.78;2.20;;;;;;;12.81;100.00;102963.91;5091331;28;20044;-82
2022/10/19 09:28:03;;;;;;;10.05;1.77;;;;;;;12.85;100.00;102969.34;5088555;28;20055;-82
2022/10/19 09:30:37;;;;;;;9.10;2.10;;;;;;;12.80;100.00;102973.63;5071282;28;20046;-82
2022/10/19 09:33:14;;;;;;;6.72;1.52;;;;;;;12.78;100.00;102963.81;5116690;27;20451;-82
2022/10/19 09:35:45;;;;;;;8.40;1.80;;;;;;;12.78;100.00;102959.44;5077096;28;20047;-82
2022/10/19 09:38:18;;;;;;;9.35;2.35;;;;;;;12.76;100.00;102953.22;5076654;28;20070;-82
2022/10/19 09:40:47;;;;;;;4.07;1.60;;;;;;;12.72;100.00;102955.72;5096982;27;20031;-82
2022/10/19 09:43:20;;;;;;;8.52;1.95;;;;;;;12.71;100.00;102946.00;5069415;28;20236;-83
2022/10/19 09:46:01;;;;;;;8.18;1.63;;;;;;;12.72;100.00;102953.06;5042238;28;20050;-81
2022/10/19 09:48:58;;;;;;;4.75;1.73;;;;;;;12.71;100.00;102949.53;5062829;28;20044;-82
2022/10/19 09:51:38;;;;;;;4.00;1.10;;;;;;;12.71;100.00;102944.25;5053275;28;20052;-82
2022/10/19 09:54:22;;;;;;;7.88;1.58;;;;;;;12.69;100.00;102938.03;5075953;28;20047;-82
2022/10/19 09:56:55;;;;;;;12.60;2.08;;;;;;;12.71;100.00;102931.03;5080994;28;20046;-84
2022/10/19 09:59:28;;;;;;;6.57;1.27;;;;;;;12.77;100.00;102952.34;5052023;28;20044;-83
2022/10/19 10:02:09;;;;;;;7.50;1.55;;;;;;;12.80;100.00;102946.28;5035584;28;20047;-83
2022/10/19 10:04:44;;;;;;;4.97;1.48;;;;;;;12.87;100.00;102946.47;5095856;27;20062;-83
2022/10/19 10:07:17;;;;;;;5.80;1.23;;;;;;;12.92;100.00;102943.06;5071173;28;20032;-83
2022/10/19 10:09:45;;;;;;;7.15;1.58;;;;;;;12.96;100.00;102952.88;5081212;28;20046;-83
2022/10/19 10:12:14;;;;;;;7.03;1.65;;;;;;;12.96;100.00;102948.47;5073130;27;20047;-83
2022/10/19 10:14:43;;;;;;;7.80;1.60;;;;;;;12.93;100.00;102955.41;5066534;27;20027;-83
2022/10/19 10:17:19;;;;;;;67.70;8.25;;;;;;;12.94;100.00;102955.47;5064232;27;20039;-82
2022/10/19 10:20:17;;;;;;;11.02;2.40;;;;;;;12.92;100.00;102949.22;5101527;28;20040;-83
2022/10/19 10:23:03;;;;;;;9.18;1.50;;;;;;;12.95;100.00;102941.38;5070372;27;20048;-82
2022/10/19 10:25:35;;;;;;;5.13;1.60;;;;;;;12.95;100.00;102949.31;5084847;28;20047;-81
2022/10/19 10:28:22;;;;;;;9.82;2.03;;;;;;;12.96;100.00;102951.09;5081933;27;20696;-83
2022/10/19 10:31:00;;;;;;;5.82;1.80;;;;;;;12.98;100.00;102937.91;5083142;27;20046;-83
2022/10/19 10:33:31;;;;;;;7.97;2.17;;;;;;;12.96;100.00;102943.16;5067728;27;20043;-82
2022/10/19 10:36:12;;;;;;;6.65;1.95;;;;;;;12.97;100.00;102936.16;5089587;28;20210;-82
2022/10/19 10:38:51;;;;;;;7.15;1.65;;;;;;;12.96;100.00;102934.34;5064277;27;20050;-83
2022/10/19 10:41:22;;;;;;;2.95;1.40;;;;;;;13.02;100.00;102939.78;5090605;27;20050;-82
2022/10/19 10:44:19;;;;;;;7.07;1.52;;;;;;;13.11;100.00;102933.84;5066282;28;20047;-82
2022/10/19 10:47:15;;;;;;;8.95;1.88;;;;;;;13.19;100.00;102930.53;5080884;27;20086;-83
2022/10/19 10:50:01;;;;;;;8.70;2.00;;;;;;;13.22;100.00;102937.66;5107763;27;20070;-81
2022/10/19 10:52:30;;;;;;;8.35;1.70;;;;;;;13.22;100.00;102930.63;5086135;27;20031;-83
2022/10/19 10:55:08;;;;;;;7.72;1.50;;;;;;;13.22;100.00;102933.25;5077468;27;20031;-83
2022/10/19 10:57:44;;;;;;;11.88;1.45;;;;;;;13.23;100.00;102932.41;5103811;27;20503;-82
2022/10/19 11:00:19;;;;;;;9.48;1.73;;;;;;;13.22;100.00;102927.97;5098481;28;20048;-83
2022/10/19 11:03:11;;;;;;;10.07;1.40;;;;;;;13.21;100.00;102928.84;5097017;27;20039;-83
2022/10/19 11:05:45;;;;;;;4.50;1.40;;;;;;;13.18;100.00;102923.47;5106950;28;20043;-83
2022/10/19 11:08:26;;;;;;;8.88;1.75;;;;;;;13.12;100.00;102915.38;5088438;27;20275;-83
2022/10/19 11:11:14;;;;;;;12.57;1.92;;;;;;;13.05;100.00;102903.72;5070913;28;20044;-84
2022/10/19 11:13:55;;;;;;;7.18;1.77;;;;;;;13.02;100.00;102905.38;5109461;27;20039;-84
2022/10/19 11:16:31;;;;;;;411.42;49.05;;;;;;;13.02;100.00;102908.94;5117467;27;20074;-83
2022/10/19 11:19:18;;;;;;;9.27;2.03;;;;;;;13.04;100.00;102903.66;5036082;27;20040;-83
2022/10/19 11:22:02;;;;;;;64.10;5.90;;;;;;;13.00;100.00;102899.16;5093413;27;20131;-83
2022/10/19 11:24:47;;;;;;;5.15;1.42;;;;;;;12.96;100.00;102895.53;5084703;28;20043;-82
2022/10/19 11:27:47;;;;;;;5.13;1.23;;;;;;;12.97;100.00;102891.16;5088266;28;20039;-82
2022/10/19 11:30:21;;;;;;;8.93;1.60;;;;;;;12.97;100.00;102885.88;5101402;27;20346;-82
2022/10/19 11:33:29;;;;;;;7.78;1.52;;;;;;;13.02;100.00;102873.63;5108479;27;20043;-84
2022/10/19 11:36:07;;;;;;;3.40;1.30;;;;;;;13.09;100.00;102872.03;5044810;27;20051;-83
2022/10/19 11:39:03;;;;;;;189.80;21.63;;;;;;;13.13;100.00;102874.78;5052419;27;20052;-83
2022/10/19 11:41:38;;;;;;;50.72;7.80;;;;;;;13.21;100.00;102872.31;5087693;28;20054;-82
2022/10/19 11:44:26;;;;;;;6.65;1.60;;;;;;;13.21;100.00;102875.91;5074061;27;20677;-82
2022/10/19 11:47:14;;;;;;;5.47;1.60;;;;;;;13.23;100.00;102871.53;5086784;27;20039;-83
2022/10/19 11:50:19;;;;;;;6.05;1.50;;;;;;;13.23;100.00;102866.22;5059995;27;20031;-81
2022/10/19 11:53:14;;;;;;;8.07;1.75;;;;;;;13.26;100.00;102858.34;5088773;27;20396;-83
2022/10/19 11:56:06;;;;;;;6.15;1.30;;;;;;;13.32;100.00;102843.50;5070323;28;20043;-83
2022/10/19 11:58:53;;;;;;;3.70;1.40;;;;;;;13.35;100.00;102852.41;5093123;27;20039;-81
2022/10/19 12:01:38;;;;;;;5.95;1.83;;;;;;;13.33;100.00;102840.00;5077205;27;20408;-82
2022/10/19 12:04:41;;;;;;;8.27;1.75;;;;;;;13.36;100.00;102840.94;5112254;27;20397;-82
2022/10/19 12:07:42;;;;;;;5.75;1.60;;;;;;;13.42;100.00;102840.19;5097815;27;20050;-81
2022/10/19 12:10:47;;;;;;;4.63;1.20;;;;;;;13.42;100.00;102840.19;5097534;27;20039;-83
2022/10/19 12:13:20;;;;;;;2.03;0.95;;;;;;;13.36;100.00;102824.19;5104890;28;20039;-81
2022/10/19 12:15:52;;;;;;;6.15;1.55;;;;;;;13.31;100.00;102826.72;5102173;27;20043;-81
2022/10/19 12:18:21;;;;;;;5.28;1.30;;;;;;;13.26;100.00;102823.94;5106054;27;20056;-82
2022/10/19 12:20:57;;;;;;;1.85;1.00;;;;;;;13.19;100.00;102816.69;5047327;27;20462;-82
2022/10/19 12:23:34;;;;;;;9.27;2.03;;;;;;;13.16;100.00;102818.41;5099466;27;20046;-81
2022/10/19 12:26:08;;;;;;;29.98;4.10;;;;;;;13.11;100.00;102809.44;5088520;28;20047;-81